Atwater, New York
Current Conditions -  °F | °C
As of 7:56 PM on Sunday 23 Nov 2014 (Local Time) from KITH Reporting Station
Scattered Clouds Scattered Clouds  
Wind Chill: 11°   Ceiling: Unl
Heat Index: 11°   Visibility: 10mi
Dew Point: -1°   Wind: 17mph
Humidity: 45%   Direction: 160°SSE
Pressure: 29.92"   Gusts: 23mph
Location:  42.6734°N, 76.6263°W
Report Text: KITH 240056Z 16015G20KT 10SM SCT110 11/M01 A2992 RMK AO2 T01051011 SLP135
Loading
Personal Weather Stations






























Interactive Weather Map New forecast layout! Learn more

10-Day Weather Forecast

Advertisements
Track Severe Weather on mobile